37ème Challenge de Massy

Compétition Départementale

MASSY

Du Samedi 11 Mai 2019 au Dimanche 12 Mai 2019

Bassin de 50m

50 Dos Dames

Finale A

Nom Année Temps Pts Club Pays
1 BOUSQUIE Chloé 2006 0:32:70 1040 CN VIRY-CHÂTILLON FRA
2 BRINDEJONC Juline 2006 0:33:12 1018 ES MASSY NATATION FRA
3 TABIASCO Alexandra 2006 0:33:65 990 STADE FRANÇAIS O COURBEVOIE FRA
4 LEGER Katell 2006 0:34:13 965 ES MASSY NATATION FRA
5 ALLIONE Elise 2006 0:34:63 940 NOGENT NATATION 94 FRA
6 NGUYEN DUC LONG Rachel 2006 0:34:85 929 CN ST-MICHEL-SUR-ORGE FRA
7 AMROUS Serine 2006 0:34:90 927 STADE FRANÇAIS O COURBEVOIE FRA
8 MJAHED Sirine 2007 0:35:07 918 ES MASSY NATATION FRA
9 PETESCH Lea 2007 0:35:07 918 CN BERRE MIXTES FRA
10 POCIECHA Alexandra 2007 0:35:33 905 ES VITRY FRA
11 MONGIN Sthélyna 2007 0:35:47 898 CN ST-MICHEL-SUR-ORGE FRA
12 VELLA Djenaba 2006 0:35:85 880 ES VITRY FRA
13 OULARBI Dania 2007 0:36:98 826 CN ST-MICHEL-SUR-ORGE FRA
14 BONEL Ninon 2007 0:37:23 814 CN ST-MICHEL-SUR-ORGE FRA
15 REINESCH Leeloo 2007 0:37:32 810 CN BERRE MIXTES FRA
16 BRUGMAN Serena 2008 0:37:77 789 CN BERRE MIXTES FRA
17 KOHLER Gabriela 2008 0:38:16 771 STADE FRANÇAIS O COURBEVOIE FRA
18 CABIOCH Leonie 2008 0:38:16 771 CSN GUYANCOURT FRA
19 PHILIPPART Lina 2007 0:38:95 735 CN BERRE MIXTES FRA
20 VERBRUGGEN Hanne 2008 0:39:43 714 CN BERRE MIXTES FRA
21 RAKOTOZAFY Hannah 2008 0:39:82 697 CN ST-MICHEL-SUR-ORGE FRA
22 JAFFUEL Ella 2009 0:39:88 695 STADE FRANÇAIS O COURBEVOIE FRA
23 GUILLEUX-MASSON Emmy 2008 0:40:40 672 CSN GUYANCOURT FRA
24 DA SILVA Lyana 2008 0:40:91 651 CN BRUNOY-ESSONNE FRA
25 REMY Lou 2009 0:41:41 630 ES MASSY NATATION FRA
26 TERIIPAIA CHEVRETON Kalena 2008 0:42:25 596 STADE DE VANVES FRA
27 HUCHETTE GERARD Siloë 2010 0:42:92 569 ES MASSY NATATION FRA
28 BOTS Chloé 2009 0:43:16 560 CN BRUNOY-ESSONNE FRA
29 DELSART Ambre 2010 0:45:55 471 ES MASSY NATATION FRA
30 LARRIEULE Maïa 2009 0:45:86 460 CSN GUYANCOURT FRA
31 VELDHUIS Victoria 2009 0:45:98 456 CN BERRE MIXTES FRA
32 PINAUD Alice 2009 0:45:98 456 ES MASSY NATATION FRA
33 GRASSET Lilyrose 2009 0:46:10 452 ES VITRY FRA
34 CONTE PEREIRA Léana 2009 0:46:65 433 USO BEZONS FRA
35 LANDREAT Amandine 2010 0:47:94 390 CN BRUNOY-ESSONNE FRA
36 REZK-KALLAH Ines 2010 0:48:62 368 ES MASSY NATATION FRA
37 CAUTY Ninon 2010 0:50:35 316 ES MASSY NATATION FRA
38 LORENZI Noa 2010 0:50:37 315 ES MASSY NATATION FRA
39 AKROUR Taïce 2010 0:53:31 235 CN VIRY-CHÂTILLON FRA
40 BATIKIAN Chloé 2010 0:55:65 180 CN ST-MICHEL-SUR-ORGE FRA

Séries

Nom Année Temps Pts Club Pays
1 BRINDEJONC Juline 2006 0:33:58 994 ES MASSY NATATION FRA
2 BOUSQUIE Chloé 2006 0:33:70 987 CN VIRY-CHÂTILLON FRA
3 ALLIONE Elise 2006 0:33:88 978 NOGENT NATATION 94 FRA
4 TABIASCO Alexandra 2006 0:34:00 972 STADE FRANÇAIS O COURBEVOIE FRA
5 LEGER Katell 2006 0:34:12 966 ES MASSY NATATION FRA
6 AMROUS Serine 2006 0:34:55 944 STADE FRANÇAIS O COURBEVOIE FRA
7 NGUYEN DUC LONG Rachel 2006 0:34:58 943 CN ST-MICHEL-SUR-ORGE FRA
8 POCIECHA Alexandra 2007 0:35:46 899 ES VITRY FRA
9 MJAHED Sirine 2007 0:35:54 895 ES MASSY NATATION FRA
10 VELLA Djenaba 2006 0:35:84 880 ES VITRY FRA
11 MONGIN Sthélyna 2007 0:35:90 877 CN ST-MICHEL-SUR-ORGE FRA
12 PETESCH Lea 2007 0:36:25 860 CN BERRE MIXTES FRA
13 OULARBI Dania 2007 0:36:55 846 CN ST-MICHEL-SUR-ORGE FRA
14 MOUNIER Manon 2006 0:36:57 845 ES MASSY NATATION FRA
15 BONEL Ninon 2007 0:37:71 792 CN ST-MICHEL-SUR-ORGE FRA
16 REINESCH Leeloo 2007 0:38:07 775 CN BERRE MIXTES FRA
17 SANCHEZ Laura 2006 0:38:16 771 CN BRUNOY-ESSONNE FRA
18 CABIOCH Leonie 2008 0:38:16 771 CSN GUYANCOURT FRA
19 SKOUMAS Stéfanie 2006 0:38:17 770 CN ST-MICHEL-SUR-ORGE FRA
20 PHILIPPART Lina 2007 0:38:18 770 CN BERRE MIXTES FRA
21 LINDMARK MELO Maia 2007 0:38:34 763 CN BERRE MIXTES FRA
22 DOUILLET Ionnah 2007 0:38:39 760 ES MASSY NATATION FRA
23 BRUGMAN Serena 2008 0:38:39 760 CN BERRE MIXTES FRA
24 POPA Sonia 2006 0:38:51 755 CN BERRE MIXTES FRA
25 JAFFUEL Ella 2009 0:38:61 751 STADE FRANÇAIS O COURBEVOIE FRA
26 ANGELE Loulia 2007 0:38:74 745 ES MASSY NATATION FRA
27 KOHLER Gabriela 2008 0:39:02 732 STADE FRANÇAIS O COURBEVOIE FRA
28 DE WEERDT Amelie 2007 0:39:07 730 CN BERRE MIXTES FRA
29 BARBAT Périne 2006 0:39:26 722 CN ST-MICHEL-SUR-ORGE FRA
30 HADJIDJ Lina 2006 0:39:75 700 ES MASSY NATATION FRA
31 BERTE Maud 2007 0:39:76 700 CSN GUYANCOURT FRA
32 GUILLEUX-MASSON Emmy 2008 0:39:85 696 CSN GUYANCOURT FRA
33 PORCHER Pauline 2006 0:40:07 686 NOGENT NATATION 94 FRA
34 GARNIER Apolline 2006 0:40:17 682 NOGENT NATATION 94 FRA
35 SABOURAULT Capucine 2007 0:40:22 680 CLUB NAUTIQUE DOMREMY 13 FRA
36 MARQUES Oceane 2006 0:40:57 665 USO BEZONS FRA
37 LELEU Elodie 2006 0:40:58 665 NOGENT NATATION 94 FRA
38 SAISSE Diane 2007 0:40:62 663 CN BRUNOY-ESSONNE FRA
39 ARAGONES Roxane 2007 0:41:20 639 ES MASSY NATATION FRA
40 ADLI Anais 2007 0:41:24 637 CN BRUNOY-ESSONNE FRA
41 RAKOTOZAFY Hannah 2008 0:41:31 634 CN ST-MICHEL-SUR-ORGE FRA
42 DA SILVA Lyana 2008 0:41:35 632 CN BRUNOY-ESSONNE FRA
43 REMY Lou 2009 0:41:36 632 ES MASSY NATATION FRA
44 BENALI Safwa 2007 0:41:51 626 USO BEZONS FRA
45 CISSE Maïwenn 2007 0:41:90 610 CN ST-MICHEL-SUR-ORGE FRA
46 QUAINAY Assia 2006 0:41:95 608 CSN GUYANCOURT FRA
47 TORRES Capucine 2007 0:41:97 607 NOGENT NATATION 94 FRA
48 HUCHETTE GERARD Siloë 2010 0:42:11 601 ES MASSY NATATION FRA
49 VERBRUGGEN Hanne 2008 0:42:45 588 CN BERRE MIXTES FRA
50 TERIIPAIA CHEVRETON Kalena 2008 0:42:45 588 STADE DE VANVES FRA
51 DE OLIVEIRA Maelle 2008 0:43:19 559 US VAIRES FRA
52 SO Fatoumata 2007 0:43:39 551 ES MASSY NATATION FRA
53 VERVLOESSEM Siska 2008 0:43:57 544 CN BERRE MIXTES FRA
54 NOUREDDINE Attika 2008 0:43:78 536 ES MASSY NATATION FRA
55 DEWYN Chloe 2007 0:44:05 526 CN BERRE MIXTES FRA
56 BOTS Chloé 2009 0:44:06 526 CN BRUNOY-ESSONNE FRA
57 LARRIEULE Maïa 2009 0:44:14 523 CSN GUYANCOURT FRA
58 ROBAUT Mathilde 2008 0:44:29 517 CN MELUN VAL DE SEINE FRA
59 HADJ-ALI Aya 2008 0:45:32 479 US VAIRES FRA
60 PINAUD Alice 2009 0:45:52 472 ES MASSY NATATION FRA
61 THINNES Lena 2007 0:45:55 471 CN BERRE MIXTES FRA
62 DELSART Ambre 2010 0:45:75 464 ES MASSY NATATION FRA
63 LANDREAT Cloé 2008 0:45:98 456 CN BRUNOY-ESSONNE FRA
64 MARTUCCI Sofia 2008 0:46:04 454 CN BERRE MIXTES FRA
65 DE PRETER Lien 2008 0:46:06 453 CN BERRE MIXTES FRA
66 MULLER Camille 2008 0:46:15 450 CN BRUNOY-ESSONNE FRA
67 VELDHUIS Victoria 2009 0:46:20 448 CN BERRE MIXTES FRA
68 GRASSET Lilyrose 2009 0:46:20 448 ES VITRY FRA
69 CONTE PEREIRA Léana 2009 0:46:38 442 USO BEZONS FRA
70 POUX Léana 2009 0:46:60 434 CN ST-MICHEL-SUR-ORGE FRA
71 ELOISE Sarah 2009 0:47:96 389 CSN GUYANCOURT FRA
72 PHULPIN Lena 2008 0:48:32 378 STADE DE VANVES FRA
73 REZK-KALLAH Ines 2010 0:48:52 371 ES MASSY NATATION FRA
74 LANDREAT Amandine 2010 0:48:59 369 CN BRUNOY-ESSONNE FRA
75 SABOURAULT Garance 2009 0:48:61 368 CLUB NAUTIQUE DOMREMY 13 FRA
76 BRUGMAN Naomi 2009 0:49:50 341 CN BERRE MIXTES FRA
77 LORENZI Noa 2010 0:50:19 320 ES MASSY NATATION FRA
78 HENRIQUES Emma 2009 0:50:50 311 CN BRUNOY-ESSONNE FRA
79 MAUREL-GUERET Chloé 2009 0:50:82 302 CLUB NAUTIQUE DOMREMY 13 FRA
80 BOUTDARINE Zineb 2009 0:51:71 277 CN MELUN VAL DE SEINE FRA
81 CAUTY Ninon 2010 0:52:02 269 ES MASSY NATATION FRA
82 ELIE Alexandra 2009 0:52:13 266 CSN GUYANCOURT FRA
83 BATIKIAN Chloé 2010 0:53:58 228 CN ST-MICHEL-SUR-ORGE FRA
84 AKROUR Taïce 2010 0:53:64 227 CN VIRY-CHÂTILLON FRA
85 GUILLOTON Margo 2010 0:53:69 226 CN ST-MICHEL-SUR-ORGE FRA
86 PICARD Anais 2010 0:54:92 196 ES MASSY NATATION FRA
87 MARCHAIS PAILLET Aline 2010 0:56:27 167 ES MASSY NATATION FRA
88 HENRY Enea 2010 0:58:81 117 ES MASSY NATATION FRA
89 DUARTE Gabrielle 2009 1:03:13 53 CLUB NAUTIQUE DOMREMY 13 FRA